KSUA

Witham Field Airport

Stuart, Florida, USA
METAR KSUA 161747Z 35008KT 7SM FEW015 19/12 A3020
Observed Flight Rules
Jan-16 @ 17:47 UTC (60 minutes ago) Visual Flight Rules
Wind Visibility Clouds
350° at 8 knots 7 miles
  • Few at 1,500' AGL
Temperatures Readings
Current 19°C / 66°F
Dewpoint 12°C / 54°F
Humidity 64%
Altimeter 30.2" Hg
Pressure 1022.72 hPa
Elevation 6
METAR KSUA 161747Z 35008KT 7SM FEW015 19/12 A3020
Observed Flight Rules
Jan-16 @ 17:47 UTC
(60 minutes ago)
VFR
Wind Visibility
350° at 8 knots 7 miles
Clouds
  • Few at 1,500' AGL
Temperature Dewpoint
19°C / 66°F 12°C / 54°F
Humidity Altimeter Pressure
64% 30.2" Hg 1022.72 hPa